Bryan, Texas
Current Conditions -  °F | °C
As of 5:55 PM on Sunday 23 Nov 2014 (Local Time) from KCFD Reporting Station
Clear Clear  
Wind Chill: 70°   Ceiling: Unl
Heat Index: 70°   Visibility: 10mi
Dew Point: 49°   Wind: 5mph
Humidity: 48%   Direction: 210°SSW
Pressure: 29.56"   Gusts: NA
Location:  30.67°N, 96.37°W
Report Text: KCFD 232355Z AUTO 21004KT 10SM CLR 21/10 A2956 RMK AO2 T02100096 10262 20210
Loading
Personal Weather Stations






























Interactive Weather Map New forecast layout! Learn more

10-Day Weather Forecast

Advertisements
Track Severe Weather on mobile